sensor_id;sensor_type;location;lat;lon;timestamp;temperature;humidity
67529;DHT22;54366;51.980;5.856;2023-12-20T00:00:04;8.10;90.10
67529;DHT22;54366;51.980;5.856;2023-12-20T00:02:30;8.10;90.20
67529;DHT22;54366;51.980;5.856;2023-12-20T00:04:57;8.10;90.20
67529;DHT22;54366;51.980;5.856;2023-12-20T00:07:23;8.10;90.10
67529;DHT22;54366;51.980;5.856;2023-12-20T00:09:49;8.10;90.10
67529;DHT22;54366;51.980;5.856;2023-12-20T00:12:16;8.10;90.10
67529;DHT22;54366;51.980;5.856;2023-12-20T00:14:42;8.10;90.10
67529;DHT22;54366;51.980;5.856;2023-12-20T00:17:08;8.10;90.10
67529;DHT22;54366;51.980;5.856;2023-12-20T00:19:35;8.00;90.10
67529;DHT22;54366;51.980;5.856;2023-12-20T00:22:01;8.10;90.10
67529;DHT22;54366;51.980;5.856;2023-12-20T00:24:27;8.10;90.10
67529;DHT22;54366;51.980;5.856;2023-12-20T00:26:53;8.10;89.80
67529;DHT22;54366;51.980;5.856;2023-12-20T00:29:20;8.00;89.90
67529;DHT22;54366;51.980;5.856;2023-12-20T00:31:46;8.00;89.80
67529;DHT22;54366;51.980;5.856;2023-12-20T00:34:12;8.00;89.70
67529;DHT22;54366;51.980;5.856;2023-12-20T00:36:38;8.00;89.80
67529;DHT22;54366;51.980;5.856;2023-12-20T00:39:05;7.90;89.70
67529;DHT22;54366;51.980;5.856;2023-12-20T00:41:32;7.90;89.70
67529;DHT22;54366;51.980;5.856;2023-12-20T00:43:59;7.90;89.60
67529;DHT22;54366;51.980;5.856;2023-12-20T00:46:25;7.90;89.50
67529;DHT22;54366;51.980;5.856;2023-12-20T00:48:51;7.90;89.50
67529;DHT22;54366;51.980;5.856;2023-12-20T00:51:18;7.80;89.30
67529;DHT22;54366;51.980;5.856;2023-12-20T00:53:45;7.80;89.50
67529;DHT22;54366;51.980;5.856;2023-12-20T00:56:12;7.80;89.50
67529;DHT22;54366;51.980;5.856;2023-12-20T00:58:38;7.80;89.50
67529;DHT22;54366;51.980;5.856;2023-12-20T01:01:04;7.70;89.60
67529;DHT22;54366;51.980;5.856;2023-12-20T01:03:31;7.70;89.60
67529;DHT22;54366;51.980;5.856;2023-12-20T01:05:57;7.70;89.60
67529;DHT22;54366;51.980;5.856;2023-12-20T01:08:23;7.70;89.60
67529;DHT22;54366;51.980;5.856;2023-12-20T01:10:49;7.70;89.70
67529;DHT22;54366;51.980;5.856;2023-12-20T01:13:16;7.70;89.80
67529;DHT22;54366;51.980;5.856;2023-12-20T01:15:42;7.70;89.70
67529;DHT22;54366;51.980;5.856;2023-12-20T01:18:08;7.70;89.80
67529;DHT22;54366;51.980;5.856;2023-12-20T01:20:34;7.70;89.80
67529;DHT22;54366;51.980;5.856;2023-12-20T01:23:01;7.70;89.80
67529;DHT22;54366;51.980;5.856;2023-12-20T01:25:27;7.60;89.80
67529;DHT22;54366;51.980;5.856;2023-12-20T01:27:53;7.60;89.80
67529;DHT22;54366;51.980;5.856;2023-12-20T01:30:19;7.60;89.80
67529;DHT22;54366;51.980;5.856;2023-12-20T01:32:46;7.60;89.70
67529;DHT22;54366;51.980;5.856;2023-12-20T01:35:12;7.50;89.70
67529;DHT22;54366;51.980;5.856;2023-12-20T01:37:39;7.60;89.80
67529;DHT22;54366;51.980;5.856;2023-12-20T01:40:06;7.60;89.70
67529;DHT22;54366;51.980;5.856;2023-12-20T01:42:34;7.50;89.50
67529;DHT22;54366;51.980;5.856;2023-12-20T01:45:00;7.50;90.00
67529;DHT22;54366;51.980;5.856;2023-12-20T01:47:26;7.50;89.60
67529;DHT22;54366;51.980;5.856;2023-12-20T01:49:53;7.50;89.60
67529;DHT22;54366;51.980;5.856;2023-12-20T01:52:20;7.50;89.60
67529;DHT22;54366;51.980;5.856;2023-12-20T01:54:47;7.50;89.60
67529;DHT22;54366;51.980;5.856;2023-12-20T01:57:14;7.50;89.60
67529;DHT22;54366;51.980;5.856;2023-12-20T01:59:40;7.50;89.60
67529;DHT22;54366;51.980;5.856;2023-12-20T02:02:07;7.50;90.00
67529;DHT22;54366;51.980;5.856;2023-12-20T02:04:34;7.50;89.50
67529;DHT22;54366;51.980;5.856;2023-12-20T02:07:00;7.50;89.50
67529;DHT22;54366;51.980;5.856;2023-12-20T02:09:27;7.50;89.50
67529;DHT22;54366;51.980;5.856;2023-12-20T02:11:55;7.50;89.50
67529;DHT22;54366;51.980;5.856;2023-12-20T02:14:22;7.50;89.50
67529;DHT22;54366;51.980;5.856;2023-12-20T02:16:48;7.50;89.50
67529;DHT22;54366;51.980;5.856;2023-12-20T02:19:15;7.50;89.50
67529;DHT22;54366;51.980;5.856;2023-12-20T02:21:43;7.50;90.00
67529;DHT22;54366;51.980;5.856;2023-12-20T02:24:09;7.40;89.40
67529;DHT22;54366;51.980;5.856;2023-12-20T02:26:36;7.50;89.50
67529;DHT22;54366;51.980;5.856;2023-12-20T02:29:02;7.40;89.50
67529;DHT22;54366;51.980;5.856;2023-12-20T02:31:28;7.40;89.40
67529;DHT22;54366;51.980;5.856;2023-12-20T02:33:55;7.40;89.40
67529;DHT22;54366;51.980;5.856;2023-12-20T02:36:21;7.50;89.50
67529;DHT22;54366;51.980;5.856;2023-12-20T02:38:47;7.40;89.40
67529;DHT22;54366;51.980;5.856;2023-12-20T02:41:14;7.40;89.40
67529;DHT22;54366;51.980;5.856;2023-12-20T02:43:42;7.40;89.50
67529;DHT22;54366;51.980;5.856;2023-12-20T02:46:09;7.50;89.50
67529;DHT22;54366;51.980;5.856;2023-12-20T02:48:35;7.50;89.50
67529;DHT22;54366;51.980;5.856;2023-12-20T02:51:01;7.40;89.50
67529;DHT22;54366;51.980;5.856;2023-12-20T02:53:27;7.50;89.50
67529;DHT22;54366;51.980;5.856;2023-12-20T02:55:54;7.50;89.50
67529;DHT22;54366;51.980;5.856;2023-12-20T02:58:20;7.50;89.50
67529;DHT22;54366;51.980;5.856;2023-12-20T03:00:46;7.50;89.50
67529;DHT22;54366;51.980;5.856;2023-12-20T03:03:12;7.50;89.40
67529;DHT22;54366;51.980;5.856;2023-12-20T03:05:39;7.50;89.40
67529;DHT22;54366;51.980;5.856;2023-12-20T03:08:05;7.50;90.00
67529;DHT22;54366;51.980;5.856;2023-12-20T03:10:32;7.50;89.40
67529;DHT22;54366;51.980;5.856;2023-12-20T03:12:58;7.50;89.40
67529;DHT22;54366;51.980;5.856;2023-12-20T03:15:24;7.50;89.30
67529;DHT22;54366;51.980;5.856;2023-12-20T03:17:51;7.50;89.10
67529;DHT22;54366;51.980;5.856;2023-12-20T03:20:17;7.50;89.10
67529;DHT22;54366;51.980;5.856;2023-12-20T03:22:43;7.50;89.20
67529;DHT22;54366;51.980;5.856;2023-12-20T03:25:09;7.50;89.20
67529;DHT22;54366;51.980;5.856;2023-12-20T03:27:39;7.50;89.20
67529;DHT22;54366;51.980;5.856;2023-12-20T03:30:06;7.50;89.10
67529;DHT22;54366;51.980;5.856;2023-12-20T03:32:32;7.50;89.20
67529;DHT22;54366;51.980;5.856;2023-12-20T03:34:58;7.40;89.20
67529;DHT22;54366;51.980;5.856;2023-12-20T03:37:25;7.50;89.20
67529;DHT22;54366;51.980;5.856;2023-12-20T03:39:51;7.50;89.30
67529;DHT22;54366;51.980;5.856;2023-12-20T03:42:17;7.50;89.20
67529;DHT22;54366;51.980;5.856;2023-12-20T03:44:43;7.40;89.20
67529;DHT22;54366;51.980;5.856;2023-12-20T03:47:10;7.40;89.20
67529;DHT22;54366;51.980;5.856;2023-12-20T03:49:36;7.40;89.20
67529;DHT22;54366;51.980;5.856;2023-12-20T03:52:03;7.40;89.30
67529;DHT22;54366;51.980;5.856;2023-12-20T03:54:29;7.40;89.30
67529;DHT22;54366;51.980;5.856;2023-12-20T03:56:56;7.40;89.30
67529;DHT22;54366;51.980;5.856;2023-12-20T03:59:22;7.40;89.30
67529;DHT22;54366;51.980;5.856;2023-12-20T04:01:48;7.50;89.30
67529;DHT22;54366;51.980;5.856;2023-12-20T04:04:14;7.50;89.40
67529;DHT22;54366;51.980;5.856;2023-12-20T04:06:41;7.40;89.20
67529;DHT22;54366;51.980;5.856;2023-12-20T04:09:07;7.40;89.20
67529;DHT22;54366;51.980;5.856;2023-12-20T04:11:36;7.40;89.30
67529;DHT22;54366;51.980;5.856;2023-12-20T04:14:02;7.50;89.30
67529;DHT22;54366;51.980;5.856;2023-12-20T04:16:28;7.50;89.30
67529;DHT22;54366;51.980;5.856;2023-12-20T04:18:55;7.50;89.20
67529;DHT22;54366;51.980;5.856;2023-12-20T04:21:21;7.50;89.20
67529;DHT22;54366;51.980;5.856;2023-12-20T04:23:47;7.50;89.20
67529;DHT22;54366;51.980;5.856;2023-12-20T04:26:13;7.50;89.20
67529;DHT22;54366;51.980;5.856;2023-12-20T04:28:40;7.50;89.20
67529;DHT22;54366;51.980;5.856;2023-12-20T04:31:06;7.50;89.20
67529;DHT22;54366;51.980;5.856;2023-12-20T04:33:32;7.60;89.20
67529;DHT22;54366;51.980;5.856;2023-12-20T04:35:59;7.60;89.20
67529;DHT22;54366;51.980;5.856;2023-12-20T04:38:26;7.60;89.20
67529;DHT22;54366;51.980;5.856;2023-12-20T04:40:52;7.60;89.10
67529;DHT22;54366;51.980;5.856;2023-12-20T04:43:19;7.60;89.00
67529;DHT22;54366;51.980;5.856;2023-12-20T04:45:45;7.60;89.00
67529;DHT22;54366;51.980;5.856;2023-12-20T04:48:12;7.60;88.90
67529;DHT22;54366;51.980;5.856;2023-12-20T04:50:38;7.60;88.90
67529;DHT22;54366;51.980;5.856;2023-12-20T04:53:04;7.60;88.90
67529;DHT22;54366;51.980;5.856;2023-12-20T04:55:31;7.60;88.80
67529;DHT22;54366;51.980;5.856;2023-12-20T04:57:57;7.60;89.00
67529;DHT22;54366;51.980;5.856;2023-12-20T05:00:23;7.60;88.80
67529;DHT22;54366;51.980;5.856;2023-12-20T05:02:50;7.70;88.90
67529;DHT22;54366;51.980;5.856;2023-12-20T05:05:16;7.70;88.90
67529;DHT22;54366;51.980;5.856;2023-12-20T05:07:44;7.70;88.90
67529;DHT22;54366;51.980;5.856;2023-12-20T05:10:10;7.70;89.00
67529;DHT22;54366;51.980;5.856;2023-12-20T05:12:36;7.70;88.90
67529;DHT22;54366;51.980;5.856;2023-12-20T05:15:04;7.70;89.00
67529;DHT22;54366;51.980;5.856;2023-12-20T05:17:30;7.70;88.90
67529;DHT22;54366;51.980;5.856;2023-12-20T05:19:57;7.70;89.00
67529;DHT22;54366;51.980;5.856;2023-12-20T05:22:23;7.80;89.00
67529;DHT22;54366;51.980;5.856;2023-12-20T05:24:49;7.80;89.00
67529;DHT22;54366;51.980;5.856;2023-12-20T05:27:16;7.80;88.80
67529;DHT22;54366;51.980;5.856;2023-12-20T05:29:42;7.80;88.80
67529;DHT22;54366;51.980;5.856;2023-12-20T05:32:08;7.90;88.90
67529;DHT22;54366;51.980;5.856;2023-12-20T05:34:34;7.90;88.90
67529;DHT22;54366;51.980;5.856;2023-12-20T05:37:01;7.80;88.70
67529;DHT22;54366;51.980;5.856;2023-12-20T05:39:27;7.90;88.80
67529;DHT22;54366;51.980;5.856;2023-12-20T05:41:54;7.80;88.70
67529;DHT22;54366;51.980;5.856;2023-12-20T05:44:20;7.90;88.90
67529;DHT22;54366;51.980;5.856;2023-12-20T05:46:46;7.90;88.80
67529;DHT22;54366;51.980;5.856;2023-12-20T05:49:13;7.90;89.20
67529;DHT22;54366;51.980;5.856;2023-12-20T05:51:39;7.90;88.70
67529;DHT22;54366;51.980;5.856;2023-12-20T05:54:07;7.90;88.70
67529;DHT22;54366;51.980;5.856;2023-12-20T05:56:34;7.90;89.10
67529;DHT22;54366;51.980;5.856;2023-12-20T05:59:00;7.90;89.20
67529;DHT22;54366;51.980;5.856;2023-12-20T06:01:26;7.90;88.60
67529;DHT22;54366;51.980;5.856;2023-12-20T06:03:52;7.90;88.50
67529;DHT22;54366;51.980;5.856;2023-12-20T06:06:19;7.90;88.60
67529;DHT22;54366;51.980;5.856;2023-12-20T06:08:45;8.00;88.60
67529;DHT22;54366;51.980;5.856;2023-12-20T06:11:11;8.00;88.40
67529;DHT22;54366;51.980;5.856;2023-12-20T06:13:38;8.00;88.30
67529;DHT22;54366;51.980;5.856;2023-12-20T06:16:05;8.00;88.50
67529;DHT22;54366;51.980;5.856;2023-12-20T06:18:32;8.00;88.30
67529;DHT22;54366;51.980;5.856;2023-12-20T06:20:58;8.00;88.40
67529;DHT22;54366;51.980;5.856;2023-12-20T06:23:25;8.10;88.30
67529;DHT22;54366;51.980;5.856;2023-12-20T06:25:51;8.00;88.10
67529;DHT22;54366;51.980;5.856;2023-12-20T06:28:17;8.00;88.00
67529;DHT22;54366;51.980;5.856;2023-12-20T06:30:43;8.00;88.00
67529;DHT22;54366;51.980;5.856;2023-12-20T06:33:10;8.10;88.10
67529;DHT22;54366;51.980;5.856;2023-12-20T06:35:37;8.10;88.20
67529;DHT22;54366;51.980;5.856;2023-12-20T06:38:03;8.10;88.20
67529;DHT22;54366;51.980;5.856;2023-12-20T06:40:30;8.10;88.00
67529;DHT22;54366;51.980;5.856;2023-12-20T06:42:56;8.10;88.00
67529;DHT22;54366;51.980;5.856;2023-12-20T06:45:22;8.10;87.90
67529;DHT22;54366;51.980;5.856;2023-12-20T06:47:49;8.10;88.00
67529;DHT22;54366;51.980;5.856;2023-12-20T06:50:15;8.10;87.70
67529;DHT22;54366;51.980;5.856;2023-12-20T06:52:41;8.10;88.40
67529;DHT22;54366;51.980;5.856;2023-12-20T06:55:08;8.10;87.80
67529;DHT22;54366;51.980;5.856;2023-12-20T06:57:34;8.10;87.70
67529;DHT22;54366;51.980;5.856;2023-12-20T07:00:03;8.10;88.10
67529;DHT22;54366;51.980;5.856;2023-12-20T07:02:30;8.10;87.30
67529;DHT22;54366;51.980;5.856;2023-12-20T07:04:57;8.10;87.30
67529;DHT22;54366;51.980;5.856;2023-12-20T07:07:24;8.10;87.10
67529;DHT22;54366;51.980;5.856;2023-12-20T07:09:50;8.10;87.10
67529;DHT22;54366;51.980;5.856;2023-12-20T07:12:16;8.10;87.20
67529;DHT22;54366;51.980;5.856;2023-12-20T07:14:46;8.10;87.20
67529;DHT22;54366;51.980;5.856;2023-12-20T07:17:12;8.20;87.30
67529;DHT22;54366;51.980;5.856;2023-12-20T07:19:41;8.10;87.20
67529;DHT22;54366;51.980;5.856;2023-12-20T07:22:08;8.20;87.30
67529;DHT22;54366;51.980;5.856;2023-12-20T07:24:34;8.10;87.30
67529;DHT22;54366;51.980;5.856;2023-12-20T07:27:01;8.20;87.30
67529;DHT22;54366;51.980;5.856;2023-12-20T07:29:27;8.10;87.20
67529;DHT22;54366;51.980;5.856;2023-12-20T07:31:53;8.20;87.30
67529;DHT22;54366;51.980;5.856;2023-12-20T07:34:21;8.20;87.20
67529;DHT22;54366;51.980;5.856;2023-12-20T07:36:47;8.20;87.20
67529;DHT22;54366;51.980;5.856;2023-12-20T07:39:14;8.20;87.20
67529;DHT22;54366;51.980;5.856;2023-12-20T07:41:40;8.20;87.20
67529;DHT22;54366;51.980;5.856;2023-12-20T07:44:07;8.20;87.10
67529;DHT22;54366;51.980;5.856;2023-12-20T07:46:33;8.10;86.90
67529;DHT22;54366;51.980;5.856;2023-12-20T07:49:00;8.20;87.00
67529;DHT22;54366;51.980;5.856;2023-12-20T07:51:26;8.20;87.10
67529;DHT22;54366;51.980;5.856;2023-12-20T07:53:52;8.20;87.10
67529;DHT22;54366;51.980;5.856;2023-12-20T07:56:19;8.20;87.00
67529;DHT22;54366;51.980;5.856;2023-12-20T07:58:46;8.20;87.20
67529;DHT22;54366;51.980;5.856;2023-12-20T08:01:16;8.20;87.20
67529;DHT22;54366;51.980;5.856;2023-12-20T08:03:43;8.20;87.80
67529;DHT22;54366;51.980;5.856;2023-12-20T08:06:09;8.30;87.10
67529;DHT22;54366;51.980;5.856;2023-12-20T08:08:35;8.30;87.00
67529;DHT22;54366;51.980;5.856;2023-12-20T08:11:02;8.30;87.00
67529;DHT22;54366;51.980;5.856;2023-12-20T08:13:28;8.30;87.00
67529;DHT22;54366;51.980;5.856;2023-12-20T08:15:55;8.30;87.00
67529;DHT22;54366;51.980;5.856;2023-12-20T08:18:22;8.30;86.80
67529;DHT22;54366;51.980;5.856;2023-12-20T08:20:49;8.30;86.80
67529;DHT22;54366;51.980;5.856;2023-12-20T08:23:15;8.30;86.80
67529;DHT22;54366;51.980;5.856;2023-12-20T08:25:42;8.40;86.90
67529;DHT22;54366;51.980;5.856;2023-12-20T08:28:08;8.30;86.80
67529;DHT22;54366;51.980;5.856;2023-12-20T08:30:34;8.40;86.90
67529;DHT22;54366;51.980;5.856;2023-12-20T08:33:01;8.40;86.90
67529;DHT22;54366;51.980;5.856;2023-12-20T08:35:28;8.40;87.00
67529;DHT22;54366;51.980;5.856;2023-12-20T08:37:54;8.40;87.00
67529;DHT22;54366;51.980;5.856;2023-12-20T08:40:22;8.40;87.00
67529;DHT22;54366;51.980;5.856;2023-12-20T08:42:48;8.40;87.00
67529;DHT22;54366;51.980;5.856;2023-12-20T08:45:15;8.40;87.10
67529;DHT22;54366;51.980;5.856;2023-12-20T08:47:41;8.40;86.90
67529;DHT22;54366;51.980;5.856;2023-12-20T08:50:08;8.40;86.80
67529;DHT22;54366;51.980;5.856;2023-12-20T08:52:34;8.40;86.80
67529;DHT22;54366;51.980;5.856;2023-12-20T08:55:00;8.40;86.90
67529;DHT22;54366;51.980;5.856;2023-12-20T08:57:26;8.40;86.90
67529;DHT22;54366;51.980;5.856;2023-12-20T08:59:53;8.50;86.70
67529;DHT22;54366;51.980;5.856;2023-12-20T09:02:19;8.50;86.70
67529;DHT22;54366;51.980;5.856;2023-12-20T09:04:45;8.50;86.80
67529;DHT22;54366;51.980;5.856;2023-12-20T09:07:27;8.50;86.90
67529;DHT22;54366;51.980;5.856;2023-12-20T09:09:56;8.50;86.90
67529;DHT22;54366;51.980;5.856;2023-12-20T09:12:22;8.50;86.80
67529;DHT22;54366;51.980;5.856;2023-12-20T09:14:50;8.50;86.80
67529;DHT22;54366;51.980;5.856;2023-12-20T09:17:17;8.50;86.90
67529;DHT22;54366;51.980;5.856;2023-12-20T09:19:44;8.50;87.00
67529;DHT22;54366;51.980;5.856;2023-12-20T09:22:10;8.50;87.10
67529;DHT22;54366;51.980;5.856;2023-12-20T09:24:37;8.50;87.20
67529;DHT22;54366;51.980;5.856;2023-12-20T09:27:05;8.50;87.30
67529;DHT22;54366;51.980;5.856;2023-12-20T09:29:32;8.50;87.50
67529;DHT22;54366;51.980;5.856;2023-12-20T09:31:58;8.50;87.60
67529;DHT22;54366;51.980;5.856;2023-12-20T09:34:24;8.50;87.80
67529;DHT22;54366;51.980;5.856;2023-12-20T09:36:52;8.50;87.90
67529;DHT22;54366;51.980;5.856;2023-12-20T09:39:19;8.50;88.00
67529;DHT22;54366;51.980;5.856;2023-12-20T09:44:21;8.50;88.10
67529;DHT22;54366;51.980;5.856;2023-12-20T09:46:49;8.50;88.20
67529;DHT22;54366;51.980;5.856;2023-12-20T09:49:17;8.50;88.40
67529;DHT22;54366;51.980;5.856;2023-12-20T09:51:46;8.50;88.50
67529;DHT22;54366;51.980;5.856;2023-12-20T09:54:14;8.50;88.60
67529;DHT22;54366;51.980;5.856;2023-12-20T09:56:41;8.50;88.60
67529;DHT22;54366;51.980;5.856;2023-12-20T09:59:07;8.50;88.70
67529;DHT22;54366;51.980;5.856;2023-12-20T10:01:34;8.50;88.70
67529;DHT22;54366;51.980;5.856;2023-12-20T10:04:10;8.50;88.70
67529;DHT22;54366;51.980;5.856;2023-12-20T10:06:42;8.50;88.70
67529;DHT22;54366;51.980;5.856;2023-12-20T10:09:12;8.60;88.80
67529;DHT22;54366;51.980;5.856;2023-12-20T10:11:39;8.50;88.70
67529;DHT22;54366;51.980;5.856;2023-12-20T10:14:06;8.50;88.70
67529;DHT22;54366;51.980;5.856;2023-12-20T10:16:33;8.60;88.70
67529;DHT22;54366;51.980;5.856;2023-12-20T10:19:00;8.50;88.60
67529;DHT22;54366;51.980;5.856;2023-12-20T10:21:30;8.60;88.70
67529;DHT22;54366;51.980;5.856;2023-12-20T10:23:57;8.60;88.70
67529;DHT22;54366;51.980;5.856;2023-12-20T10:26:25;8.60;88.60
67529;DHT22;54366;51.980;5.856;2023-12-20T10:28:53;8.60;88.60
67529;DHT22;54366;51.980;5.856;2023-12-20T10:31:30;8.70;88.60
67529;DHT22;54366;51.980;5.856;2023-12-20T10:33:58;8.70;88.60
67529;DHT22;54366;51.980;5.856;2023-12-20T10:36:34;8.70;88.60
67529;DHT22;54366;51.980;5.856;2023-12-20T10:39:02;8.70;88.60
67529;DHT22;54366;51.980;5.856;2023-12-20T10:41:32;8.80;88.60
67529;DHT22;54366;51.980;5.856;2023-12-20T10:44:00;8.80;88.70
67529;DHT22;54366;51.980;5.856;2023-12-20T10:46:27;8.80;88.60
67529;DHT22;54366;51.980;5.856;2023-12-20T10:48:59;8.80;88.60
67529;DHT22;54366;51.980;5.856;2023-12-20T10:51:28;8.80;88.50
67529;DHT22;54366;51.980;5.856;2023-12-20T10:53:56;8.90;88.60
67529;DHT22;54366;51.980;5.856;2023-12-20T10:56:22;8.80;88.50
67529;DHT22;54366;51.980;5.856;2023-12-20T10:58:52;8.80;88.50
67529;DHT22;54366;51.980;5.856;2023-12-20T11:01:19;8.90;88.60
67529;DHT22;54366;51.980;5.856;2023-12-20T11:03:53;8.90;88.50
67529;DHT22;54366;51.980;5.856;2023-12-20T11:06:35;8.90;88.60
67529;DHT22;54366;51.980;5.856;2023-12-20T11:09:35;8.90;88.60
67529;DHT22;54366;51.980;5.856;2023-12-20T11:12:16;9.00;88.50
67529;DHT22;54366;51.980;5.856;2023-12-20T11:14:54;9.00;88.50
67529;DHT22;54366;51.980;5.856;2023-12-20T11:17:28;9.00;88.50
67529;DHT22;54366;51.980;5.856;2023-12-20T11:20:13;9.00;88.60
67529;DHT22;54366;51.980;5.856;2023-12-20T11:22:40;9.00;88.60
67529;DHT22;54366;51.980;5.856;2023-12-20T11:25:18;9.00;88.70
67529;DHT22;54366;51.980;5.856;2023-12-20T11:27:44;9.10;88.70
67529;DHT22;54366;51.980;5.856;2023-12-20T11:30:47;9.10;88.60
67529;DHT22;54366;51.980;5.856;2023-12-20T11:33:14;9.10;88.60
67529;DHT22;54366;51.980;5.856;2023-12-20T11:35:41;9.10;88.60
67529;DHT22;54366;51.980;5.856;2023-12-20T11:38:09;9.10;88.60
67529;DHT22;54366;51.980;5.856;2023-12-20T11:40:36;9.20;88.80
67529;DHT22;54366;51.980;5.856;2023-12-20T11:43:03;9.20;88.70
67529;DHT22;54366;51.980;5.856;2023-12-20T11:45:31;9.30;88.80
67529;DHT22;54366;51.980;5.856;2023-12-20T11:47:58;9.30;88.70
67529;DHT22;54366;51.980;5.856;2023-12-20T11:50:25;9.30;88.50
67529;DHT22;54366;51.980;5.856;2023-12-20T11:52:52;9.30;88.40
67529;DHT22;54366;51.980;5.856;2023-12-20T11:55:19;9.40;88.40
67529;DHT22;54366;51.980;5.856;2023-12-20T11:57:45;9.40;88.30
67529;DHT22;54366;51.980;5.856;2023-12-20T12:00:13;9.40;88.20
67529;DHT22;54366;51.980;5.856;2023-12-20T12:02:40;9.40;88.00
67529;DHT22;54366;51.980;5.856;2023-12-20T12:05:06;9.50;88.10
67529;DHT22;54366;51.980;5.856;2023-12-20T12:07:34;9.50;88.10
67529;DHT22;54366;51.980;5.856;2023-12-20T12:10:01;9.50;88.10
67529;DHT22;54366;51.980;5.856;2023-12-20T12:12:27;9.50;87.90
67529;DHT22;54366;51.980;5.856;2023-12-20T12:14:54;9.50;87.60
67529;DHT22;54366;51.980;5.856;2023-12-20T12:17:22;9.50;87.30
67529;DHT22;54366;51.980;5.856;2023-12-20T12:19:49;9.60;87.00
67529;DHT22;54366;51.980;5.856;2023-12-20T12:22:15;9.50;86.80
67529;DHT22;54366;51.980;5.856;2023-12-20T12:24:43;9.60;86.70
67529;DHT22;54366;51.980;5.856;2023-12-20T12:27:11;9.70;86.70
67529;DHT22;54366;51.980;5.856;2023-12-20T12:29:38;9.70;86.20
67529;DHT22;54366;51.980;5.856;2023-12-20T12:32:06;9.70;85.90
67529;DHT22;54366;51.980;5.856;2023-12-20T12:34:34;9.70;85.70
67529;DHT22;54366;51.980;5.856;2023-12-20T12:37:01;9.70;85.40
67529;DHT22;54366;51.980;5.856;2023-12-20T12:39:28;9.70;85.20
67529;DHT22;54366;51.980;5.856;2023-12-20T12:41:56;9.70;85.30
67529;DHT22;54366;51.980;5.856;2023-12-20T12:44:23;9.70;85.50
67529;DHT22;54366;51.980;5.856;2023-12-20T12:46:51;9.80;85.60
67529;DHT22;54366;51.980;5.856;2023-12-20T12:49:20;9.80;85.80
67529;DHT22;54366;51.980;5.856;2023-12-20T12:51:47;9.70;85.50
67529;DHT22;54366;51.980;5.856;2023-12-20T12:54:14;9.70;85.70
67529;DHT22;54366;51.980;5.856;2023-12-20T12:56:43;9.70;85.80
67529;DHT22;54366;51.980;5.856;2023-12-20T12:59:09;9.70;86.00
67529;DHT22;54366;51.980;5.856;2023-12-20T13:01:36;9.70;85.90
67529;DHT22;54366;51.980;5.856;2023-12-20T13:04:02;9.70;86.10
67529;DHT22;54366;51.980;5.856;2023-12-20T13:06:32;9.70;86.60
67529;DHT22;54366;51.980;5.856;2023-12-20T13:08:59;9.70;86.20
67529;DHT22;54366;51.980;5.856;2023-12-20T13:11:25;9.80;86.30
67529;DHT22;54366;51.980;5.856;2023-12-20T13:13:51;9.80;86.10
67529;DHT22;54366;51.980;5.856;2023-12-20T13:16:17;9.80;86.10
67529;DHT22;54366;51.980;5.856;2023-12-20T13:18:44;9.90;86.10
67529;DHT22;54366;51.980;5.856;2023-12-20T13:21:10;10.00;86.10
67529;DHT22;54366;51.980;5.856;2023-12-20T13:23:36;9.90;86.00
67529;DHT22;54366;51.980;5.856;2023-12-20T13:26:03;9.90;86.00
67529;DHT22;54366;51.980;5.856;2023-12-20T13:28:29;9.90;85.80
67529;DHT22;54366;51.980;5.856;2023-12-20T13:30:55;9.90;85.60
67529;DHT22;54366;51.980;5.856;2023-12-20T13:33:22;9.90;85.80
67529;DHT22;54366;51.980;5.856;2023-12-20T13:35:48;9.90;85.90
67529;DHT22;54366;51.980;5.856;2023-12-20T13:38:14;9.90;85.40
67529;DHT22;54366;51.980;5.856;2023-12-20T13:40:41;9.90;85.30
67529;DHT22;54366;51.980;5.856;2023-12-20T13:43:07;9.90;85.30
67529;DHT22;54366;51.980;5.856;2023-12-20T13:45:33;9.90;85.00
67529;DHT22;54366;51.980;5.856;2023-12-20T13:47:59;9.90;85.10
67529;DHT22;54366;51.980;5.856;2023-12-20T13:50:26;9.90;85.00
67529;DHT22;54366;51.980;5.856;2023-12-20T13:52:53;9.80;85.10
67529;DHT22;54366;51.980;5.856;2023-12-20T13:55:19;9.90;84.80
67529;DHT22;54366;51.980;5.856;2023-12-20T13:57:48;9.80;84.70
67529;DHT22;54366;51.980;5.856;2023-12-20T14:00:15;9.90;84.60
67529;DHT22;54366;51.980;5.856;2023-12-20T14:02:42;9.90;84.80
67529;DHT22;54366;51.980;5.856;2023-12-20T14:05:11;9.90;84.60
67529;DHT22;54366;51.980;5.856;2023-12-20T14:07:38;9.90;84.60
67529;DHT22;54366;51.980;5.856;2023-12-20T14:10:04;9.90;84.50
67529;DHT22;54366;51.980;5.856;2023-12-20T14:12:31;9.90;84.60
67529;DHT22;54366;51.980;5.856;2023-12-20T14:15:02;9.90;84.70
67529;DHT22;54366;51.980;5.856;2023-12-20T14:17:28;9.90;84.30
67529;DHT22;54366;51.980;5.856;2023-12-20T14:19:54;9.90;84.40
67529;DHT22;54366;51.980;5.856;2023-12-20T14:22:20;9.90;84.60
67529;DHT22;54366;51.980;5.856;2023-12-20T14:24:47;9.90;84.30
67529;DHT22;54366;51.980;5.856;2023-12-20T14:27:13;9.90;83.70
67529;DHT22;54366;51.980;5.856;2023-12-20T14:29:39;9.90;84.00
67529;DHT22;54366;51.980;5.856;2023-12-20T14:32:06;9.90;84.00
67529;DHT22;54366;51.980;5.856;2023-12-20T14:34:32;9.90;83.80
67529;DHT22;54366;51.980;5.856;2023-12-20T14:36:59;9.90;83.80
67529;DHT22;54366;51.980;5.856;2023-12-20T14:39:25;9.90;83.90
67529;DHT22;54366;51.980;5.856;2023-12-20T14:41:51;9.90;83.40
67529;DHT22;54366;51.980;5.856;2023-12-20T14:44:17;9.90;83.90
67529;DHT22;54366;51.980;5.856;2023-12-20T14:46:44;9.90;83.70
67529;DHT22;54366;51.980;5.856;2023-12-20T14:49:10;9.90;83.80
67529;DHT22;54366;51.980;5.856;2023-12-20T14:51:36;9.90;84.40
67529;DHT22;54366;51.980;5.856;2023-12-20T14:54:03;9.90;84.20
67529;DHT22;54366;51.980;5.856;2023-12-20T14:56:29;10.00;84.40
67529;DHT22;54366;51.980;5.856;2023-12-20T14:58:56;9.90;84.20
67529;DHT22;54366;51.980;5.856;2023-12-20T15:01:22;10.00;84.20
67529;DHT22;54366;51.980;5.856;2023-12-20T15:03:49;10.00;84.10
67529;DHT22;54366;51.980;5.856;2023-12-20T15:06:16;10.00;84.10
67529;DHT22;54366;51.980;5.856;2023-12-20T15:08:42;9.90;84.20
67529;DHT22;54366;51.980;5.856;2023-12-20T15:11:08;9.90;84.10
67529;DHT22;54366;51.980;5.856;2023-12-20T15:13:35;9.90;84.20
67529;DHT22;54366;51.980;5.856;2023-12-20T15:16:01;9.90;84.10
67529;DHT22;54366;51.980;5.856;2023-12-20T15:18:27;9.90;84.10
67529;DHT22;54366;51.980;5.856;2023-12-20T15:20:53;9.90;84.10
67529;DHT22;54366;51.980;5.856;2023-12-20T15:23:20;9.90;84.10
67529;DHT22;54366;51.980;5.856;2023-12-20T15:25:48;9.90;84.20
67529;DHT22;54366;51.980;5.856;2023-12-20T15:28:14;9.90;84.30
67529;DHT22;54366;51.980;5.856;2023-12-20T15:30:40;9.90;84.50
67529;DHT22;54366;51.980;5.856;2023-12-20T15:33:06;9.90;84.60
67529;DHT22;54366;51.980;5.856;2023-12-20T15:35:33;9.90;84.80
67529;DHT22;54366;51.980;5.856;2023-12-20T15:37:59;9.90;84.80
67529;DHT22;54366;51.980;5.856;2023-12-20T15:40:25;9.90;84.90
67529;DHT22;54366;51.980;5.856;2023-12-20T15:42:51;9.90;85.00
67529;DHT22;54366;51.980;5.856;2023-12-20T15:45:19;9.80;85.60